sensor_id;sensor_type;location;lat;lon;timestamp;temperature;humidity
80134;SHT30;69443;51.442;10.564;2023-07-16T00:00:09;24.42;53.25
80134;SHT30;69443;51.442;10.564;2023-07-16T00:02:37;24.38;53.30
80134;SHT30;69443;51.442;10.564;2023-07-16T00:05:02;24.35;53.55
80134;SHT30;69443;51.442;10.564;2023-07-16T00:07:28;24.29;53.54
80134;SHT30;69443;51.442;10.564;2023-07-16T00:09:54;24.26;53.79
80134;SHT30;69443;51.442;10.564;2023-07-16T00:12:19;24.24;53.88
80134;SHT30;69443;51.442;10.564;2023-07-16T00:14:44;24.21;54.19
80134;SHT30;69443;51.442;10.564;2023-07-16T00:17:10;24.20;54.29
80134;SHT30;69443;51.442;10.564;2023-07-16T00:19:35;24.17;54.34
80134;SHT30;69443;51.442;10.564;2023-07-16T00:22:00;24.13;54.24
80134;SHT30;69443;51.442;10.564;2023-07-16T00:24:26;24.10;54.23
80134;SHT30;69443;51.442;10.564;2023-07-16T00:26:52;24.10;54.39
80134;SHT30;69443;51.442;10.564;2023-07-16T00:29:18;24.08;54.44
80134;SHT30;69443;51.442;10.564;2023-07-16T00:31:43;24.06;54.62
80134;SHT30;69443;51.442;10.564;2023-07-16T00:34:08;24.03;54.66
80134;SHT30;69443;51.442;10.564;2023-07-16T00:36:34;24.01;54.66
80134;SHT30;69443;51.442;10.564;2023-07-16T00:38:59;23.98;54.77
80134;SHT30;69443;51.442;10.564;2023-07-16T00:41:24;23.98;54.83
80134;SHT30;69443;51.442;10.564;2023-07-16T00:43:50;23.93;54.80
80134;SHT30;69443;51.442;10.564;2023-07-16T00:46:16;23.92;54.86
80134;SHT30;69443;51.442;10.564;2023-07-16T00:48:42;23.89;54.87
80134;SHT30;69443;51.442;10.564;2023-07-16T00:51:08;23.89;55.02
80134;SHT30;69443;51.442;10.564;2023-07-16T00:53:34;23.84;54.92
80134;SHT30;69443;51.442;10.564;2023-07-16T00:55:59;23.84;54.94
80134;SHT30;69443;51.442;10.564;2023-07-16T00:58:25;23.80;54.82
80134;SHT30;69443;51.442;10.564;2023-07-16T01:00:51;23.77;55.09
80134;SHT30;69443;51.442;10.564;2023-07-16T01:03:16;23.77;55.13
80134;SHT30;69443;51.442;10.564;2023-07-16T01:06:04;23.74;56.27
80134;SHT30;69443;51.442;10.564;2023-07-16T01:08:44;23.73;55.36
80134;SHT30;69443;51.442;10.564;2023-07-16T01:11:11;23.70;55.46
80134;SHT30;69443;51.442;10.564;2023-07-16T01:13:37;23.70;55.59
80134;SHT30;69443;51.442;10.564;2023-07-16T01:16:04;23.69;55.58
80134;SHT30;69443;51.442;10.564;2023-07-16T01:18:29;23.63;55.52
80134;SHT30;69443;51.442;10.564;2023-07-16T01:20:54;23.62;55.63
80134;SHT30;69443;51.442;10.564;2023-07-16T01:29:18;23.58;57.04
80134;SHT30;69443;51.442;10.564;2023-07-16T01:31:46;23.53;55.85
80134;SHT30;69443;51.442;10.564;2023-07-16T01:34:14;23.52;56.01
80134;SHT30;69443;51.442;10.564;2023-07-16T01:36:41;23.52;56.15
80134;SHT30;69443;51.442;10.564;2023-07-16T01:39:07;23.48;56.15
80134;SHT30;69443;51.442;10.564;2023-07-16T01:41:32;23.46;56.17
80134;SHT30;69443;51.442;10.564;2023-07-16T01:43:57;23.46;56.23
80134;SHT30;69443;51.442;10.564;2023-07-16T01:46:23;23.42;56.41
80134;SHT30;69443;51.442;10.564;2023-07-16T01:48:48;23.41;56.61
80134;SHT30;69443;51.442;10.564;2023-07-16T01:51:14;23.39;56.67
80134;SHT30;69443;51.442;10.564;2023-07-16T01:53:42;23.37;56.69
80134;SHT30;69443;51.442;10.564;2023-07-16T01:56:08;23.37;56.65
80134;SHT30;69443;51.442;10.564;2023-07-16T01:58:33;23.35;56.72
80134;SHT30;69443;51.442;10.564;2023-07-16T02:00:58;23.35;56.64
80134;SHT30;69443;51.442;10.564;2023-07-16T02:03:24;23.34;56.65
80134;SHT30;69443;51.442;10.564;2023-07-16T02:05:49;23.32;56.64
80134;SHT30;69443;51.442;10.564;2023-07-16T02:08:16;23.27;56.61
80134;SHT30;69443;51.442;10.564;2023-07-16T02:10:42;23.27;56.60
80134;SHT30;69443;51.442;10.564;2023-07-16T02:13:07;23.25;56.51
80134;SHT30;69443;51.442;10.564;2023-07-16T02:15:33;23.25;56.54
80134;SHT30;69443;51.442;10.564;2023-07-16T02:17:58;23.24;56.67
80134;SHT30;69443;51.442;10.564;2023-07-16T02:20:23;23.22;56.61
80134;SHT30;69443;51.442;10.564;2023-07-16T02:22:49;23.21;56.71
80134;SHT30;69443;51.442;10.564;2023-07-16T02:25:14;23.18;56.80
80134;SHT30;69443;51.442;10.564;2023-07-16T02:27:39;23.17;56.88
80134;SHT30;69443;51.442;10.564;2023-07-16T02:30:05;23.15;56.92
80134;SHT30;69443;51.442;10.564;2023-07-16T02:32:32;23.15;56.83
80134;SHT30;69443;51.442;10.564;2023-07-16T02:34:57;23.12;56.84
80134;SHT30;69443;51.442;10.564;2023-07-16T02:37:23;23.11;56.71
80134;SHT30;69443;51.442;10.564;2023-07-16T02:39:48;23.08;56.81
80134;SHT30;69443;51.442;10.564;2023-07-16T02:42:14;23.08;56.67
80134;SHT30;69443;51.442;10.564;2023-07-16T02:44:39;23.07;56.83
80134;SHT30;69443;51.442;10.564;2023-07-16T02:47:10;23.06;56.52
80134;SHT30;69443;51.442;10.564;2023-07-16T02:49:35;23.01;57.15
80134;SHT30;69443;51.442;10.564;2023-07-16T02:52:01;23.00;56.65
80134;SHT30;69443;51.442;10.564;2023-07-16T02:54:26;23.00;56.77
80134;SHT30;69443;51.442;10.564;2023-07-16T02:56:52;22.97;56.71
80134;SHT30;69443;51.442;10.564;2023-07-16T02:59:17;23.01;56.65
80134;SHT30;69443;51.442;10.564;2023-07-16T03:01:43;22.94;56.41
80134;SHT30;69443;51.442;10.564;2023-07-16T03:04:08;22.94;56.46
80134;SHT30;69443;51.442;10.564;2023-07-16T03:06:34;22.90;56.37
80134;SHT30;69443;51.442;10.564;2023-07-16T03:08:59;22.90;56.42
80134;SHT30;69443;51.442;10.564;2023-07-16T03:11:24;22.87;56.36
80134;SHT30;69443;51.442;10.564;2023-07-16T03:13:50;22.87;56.44
80134;SHT30;69443;51.442;10.564;2023-07-16T03:16:15;22.83;56.48
80134;SHT30;69443;51.442;10.564;2023-07-16T03:18:41;22.82;56.48
80134;SHT30;69443;51.442;10.564;2023-07-16T03:21:06;22.79;56.53
80134;SHT30;69443;51.442;10.564;2023-07-16T03:23:32;22.79;56.56
80134;SHT30;69443;51.442;10.564;2023-07-16T03:25:57;22.74;56.70
80134;SHT30;69443;51.442;10.564;2023-07-16T03:28:23;22.73;56.60
80134;SHT30;69443;51.442;10.564;2023-07-16T03:30:49;22.72;56.53
80134;SHT30;69443;51.442;10.564;2023-07-16T03:33:15;22.69;56.46
80134;SHT30;69443;51.442;10.564;2023-07-16T03:35:45;22.69;56.57
80134;SHT30;69443;51.442;10.564;2023-07-16T03:38:11;22.69;56.43
80134;SHT30;69443;51.442;10.564;2023-07-16T03:40:37;22.65;56.62
80134;SHT30;69443;51.442;10.564;2023-07-16T03:43:03;22.63;56.72
80134;SHT30;69443;51.442;10.564;2023-07-16T03:45:28;22.60;56.58
80134;SHT30;69443;51.442;10.564;2023-07-16T03:47:53;22.59;56.59
80134;SHT30;69443;51.442;10.564;2023-07-16T03:50:19;22.57;56.55
80134;SHT30;69443;51.442;10.564;2023-07-16T03:52:44;22.56;56.61
80134;SHT30;69443;51.442;10.564;2023-07-16T03:55:10;22.52;56.54
80134;SHT30;69443;51.442;10.564;2023-07-16T03:57:35;22.49;56.65
80134;SHT30;69443;51.442;10.564;2023-07-16T04:00:05;22.48;56.78
80134;SHT30;69443;51.442;10.564;2023-07-16T04:02:35;22.46;56.53
80134;SHT30;69443;51.442;10.564;2023-07-16T04:05:02;22.45;56.69
80134;SHT30;69443;51.442;10.564;2023-07-16T04:07:27;22.39;56.60
80134;SHT30;69443;51.442;10.564;2023-07-16T04:09:53;22.41;56.55
80134;SHT30;69443;51.442;10.564;2023-07-16T04:12:18;22.37;56.70
80134;SHT30;69443;51.442;10.564;2023-07-16T04:14:44;22.35;56.77
80134;SHT30;69443;51.442;10.564;2023-07-16T04:17:09;22.35;56.76
80134;SHT30;69443;51.442;10.564;2023-07-16T04:19:35;22.30;56.79
80134;SHT30;69443;51.442;10.564;2023-07-16T04:22:00;22.31;56.65
80134;SHT30;69443;51.442;10.564;2023-07-16T04:24:29;22.30;56.78
80134;SHT30;69443;51.442;10.564;2023-07-16T04:26:55;22.31;56.77
80134;SHT30;69443;51.442;10.564;2023-07-16T04:29:20;22.35;56.95
80134;SHT30;69443;51.442;10.564;2023-07-16T04:31:46;22.34;56.80
80134;SHT30;69443;51.442;10.564;2023-07-16T04:34:11;22.37;56.74
80134;SHT30;69443;51.442;10.564;2023-07-16T04:36:37;22.39;56.81
80134;SHT30;69443;51.442;10.564;2023-07-16T04:39:03;22.42;56.77
80134;SHT30;69443;51.442;10.564;2023-07-16T04:41:28;22.46;56.48
80134;SHT30;69443;51.442;10.564;2023-07-16T04:43:53;22.49;56.44
80134;SHT30;69443;51.442;10.564;2023-07-16T04:46:19;22.53;56.25
80134;SHT30;69443;51.442;10.564;2023-07-16T04:48:44;22.56;56.14
80134;SHT30;69443;51.442;10.564;2023-07-16T04:51:10;22.62;55.99
80134;SHT30;69443;51.442;10.564;2023-07-16T04:53:35;22.69;55.82
80134;SHT30;69443;51.442;10.564;2023-07-16T04:56:01;22.73;55.52
80134;SHT30;69443;51.442;10.564;2023-07-16T04:58:26;22.76;55.25
80134;SHT30;69443;51.442;10.564;2023-07-16T05:00:52;22.82;55.03
80134;SHT30;69443;51.442;10.564;2023-07-16T05:03:17;22.91;54.85
80134;SHT30;69443;51.442;10.564;2023-07-16T05:05:42;22.96;54.73
80134;SHT30;69443;51.442;10.564;2023-07-16T05:08:08;23.01;54.46
80134;SHT30;69443;51.442;10.564;2023-07-16T05:10:33;23.07;54.39
80134;SHT30;69443;51.442;10.564;2023-07-16T05:12:59;23.14;54.19
80134;SHT30;69443;51.442;10.564;2023-07-16T05:15:24;23.19;54.12
80134;SHT30;69443;51.442;10.564;2023-07-16T05:17:49;23.28;53.83
80134;SHT30;69443;51.442;10.564;2023-07-16T05:20:15;23.37;53.74
80134;SHT30;69443;51.442;10.564;2023-07-16T05:22:40;23.41;53.46
80134;SHT30;69443;51.442;10.564;2023-07-16T05:25:06;23.48;53.38
80134;SHT30;69443;51.442;10.564;2023-07-16T05:27:31;23.56;53.30
80134;SHT30;69443;51.442;10.564;2023-07-16T05:29:57;23.61;53.02
80134;SHT30;69443;51.442;10.564;2023-07-16T05:32:22;23.69;52.78
80134;SHT30;69443;51.442;10.564;2023-07-16T05:34:48;23.74;52.74
80134;SHT30;69443;51.442;10.564;2023-07-16T05:37:13;23.83;52.52
80134;SHT30;69443;51.442;10.564;2023-07-16T05:39:39;23.90;52.25
80134;SHT30;69443;51.442;10.564;2023-07-16T05:42:05;24.00;52.18
80134;SHT30;69443;51.442;10.564;2023-07-16T05:44:31;24.04;51.93
80134;SHT30;69443;51.442;10.564;2023-07-16T05:46:56;24.15;51.83
80134;SHT30;69443;51.442;10.564;2023-07-16T05:49:23;24.22;51.67
80134;SHT30;69443;51.442;10.564;2023-07-16T05:51:48;24.29;51.48
80134;SHT30;69443;51.442;10.564;2023-07-16T05:54:14;24.36;51.26
80134;SHT30;69443;51.442;10.564;2023-07-16T05:56:39;24.43;51.17
80134;SHT30;69443;51.442;10.564;2023-07-16T05:59:04;24.49;51.06
80134;SHT30;69443;51.442;10.564;2023-07-16T06:01:30;24.58;50.85
80134;SHT30;69443;51.442;10.564;2023-07-16T06:03:55;24.65;50.79
80134;SHT30;69443;51.442;10.564;2023-07-16T06:06:20;24.72;50.63
80134;SHT30;69443;51.442;10.564;2023-07-16T06:08:46;24.83;50.47
80134;SHT30;69443;51.442;10.564;2023-07-16T06:11:12;24.87;50.44
80134;SHT30;69443;51.442;10.564;2023-07-16T06:13:37;24.97;50.22
80134;SHT30;69443;51.442;10.564;2023-07-16T06:16:03;25.06;49.91
80134;SHT30;69443;51.442;10.564;2023-07-16T06:18:28;25.14;49.90
80134;SHT30;69443;51.442;10.564;2023-07-16T06:20:54;25.22;49.70
80134;SHT30;69443;51.442;10.564;2023-07-16T06:23:20;25.31;49.52
80134;SHT30;69443;51.442;10.564;2023-07-16T06:25:46;25.37;49.48
80134;SHT30;69443;51.442;10.564;2023-07-16T06:28:15;25.43;49.27
80134;SHT30;69443;51.442;10.564;2023-07-16T06:30:40;25.50;49.10
80134;SHT30;69443;51.442;10.564;2023-07-16T06:33:06;25.55;48.94
80134;SHT30;69443;51.442;10.564;2023-07-16T06:35:32;25.59;48.79
80134;SHT30;69443;51.442;10.564;2023-07-16T06:37:57;25.69;48.56
80134;SHT30;69443;51.442;10.564;2023-07-16T06:40:24;25.76;48.43
80134;SHT30;69443;51.442;10.564;2023-07-16T06:42:49;25.83;48.21
80134;SHT30;69443;51.442;10.564;2023-07-16T06:45:14;25.87;47.97
80134;SHT30;69443;51.442;10.564;2023-07-16T06:47:40;25.91;47.84
80134;SHT30;69443;51.442;10.564;2023-07-16T06:50:06;25.97;47.63
80134;SHT30;69443;51.442;10.564;2023-07-16T06:52:31;26.04;47.38
80134;SHT30;69443;51.442;10.564;2023-07-16T06:54:57;26.10;47.38
80134;SHT30;69443;51.442;10.564;2023-07-16T06:57:25;26.16;47.17
80134;SHT30;69443;51.442;10.564;2023-07-16T06:59:50;26.27;47.03
80134;SHT30;69443;51.442;10.564;2023-07-16T07:02:17;26.28;46.85
80134;SHT30;69443;51.442;10.564;2023-07-16T07:04:43;26.41;46.67
80134;SHT30;69443;51.442;10.564;2023-07-16T07:07:09;26.49;46.59
80134;SHT30;69443;51.442;10.564;2023-07-16T07:09:34;26.60;46.48
80134;SHT30;69443;51.442;10.564;2023-07-16T07:12:00;26.72;46.33
80134;SHT30;69443;51.442;10.564;2023-07-16T07:14:25;26.82;46.17
80134;SHT30;69443;51.442;10.564;2023-07-16T07:16:51;26.93;45.91
80134;SHT30;69443;51.442;10.564;2023-07-16T07:19:16;27.04;45.81
80134;SHT30;69443;51.442;10.564;2023-07-16T07:21:43;27.15;45.65
80134;SHT30;69443;51.442;10.564;2023-07-16T07:24:10;27.27;45.39
80134;SHT30;69443;51.442;10.564;2023-07-16T07:26:36;27.37;45.16
80134;SHT30;69443;51.442;10.564;2023-07-16T07:29:01;27.43;45.03
80134;SHT30;69443;51.442;10.564;2023-07-16T07:31:27;27.52;44.74
80134;SHT30;69443;51.442;10.564;2023-07-16T07:33:52;27.60;44.11
80134;SHT30;69443;51.442;10.564;2023-07-16T07:36:19;27.66;44.09
80134;SHT30;69443;51.442;10.564;2023-07-16T07:38:44;27.71;44.00
80134;SHT30;69443;51.442;10.564;2023-07-16T07:41:10;27.80;43.82
80134;SHT30;69443;51.442;10.564;2023-07-16T07:43:35;27.90;43.79
80134;SHT30;69443;51.442;10.564;2023-07-16T07:46:01;28.01;43.57
80134;SHT30;69443;51.442;10.564;2023-07-16T07:48:26;28.10;43.25
80134;SHT30;69443;51.442;10.564;2023-07-16T07:50:51;28.20;42.79
80134;SHT30;69443;51.442;10.564;2023-07-16T07:53:17;28.29;42.65
80134;SHT30;69443;51.442;10.564;2023-07-16T07:55:45;28.38;42.37
80134;SHT30;69443;51.442;10.564;2023-07-16T07:58:11;28.49;42.20
80134;SHT30;69443;51.442;10.564;2023-07-16T08:00:37;28.56;41.90
80134;SHT30;69443;51.442;10.564;2023-07-16T08:03:03;28.69;41.87
80134;SHT30;69443;51.442;10.564;2023-07-16T08:05:28;28.82;41.30
80134;SHT30;69443;51.442;10.564;2023-07-16T08:07:54;28.89;41.30
80134;SHT30;69443;51.442;10.564;2023-07-16T08:10:21;29.00;40.81
80134;SHT30;69443;51.442;10.564;2023-07-16T08:12:46;29.10;40.46
80134;SHT30;69443;51.442;10.564;2023-07-16T08:15:12;29.18;40.29
80134;SHT30;69443;51.442;10.564;2023-07-16T08:17:44;29.29;40.20
80134;SHT30;69443;51.442;10.564;2023-07-16T08:20:11;29.42;39.90
80134;SHT30;69443;51.442;10.564;2023-07-16T08:22:37;29.51;39.61
80134;SHT30;69443;51.442;10.564;2023-07-16T08:25:03;29.59;39.35
80134;SHT30;69443;51.442;10.564;2023-07-16T08:27:29;29.67;39.15
80134;SHT30;69443;51.442;10.564;2023-07-16T08:29:54;29.80;39.24
80134;SHT30;69443;51.442;10.564;2023-07-16T08:32:20;29.90;39.04
80134;SHT30;69443;51.442;10.564;2023-07-16T08:34:46;30.00;38.87
80134;SHT30;69443;51.442;10.564;2023-07-16T08:37:11;30.10;38.69
80134;SHT30;69443;51.442;10.564;2023-07-16T08:39:37;30.22;38.70
80134;SHT30;69443;51.442;10.564;2023-07-16T08:42:02;30.32;38.74
80134;SHT30;69443;51.442;10.564;2023-07-16T08:44:29;30.39;38.43
80134;SHT30;69443;51.442;10.564;2023-07-16T08:46:54;30.45;38.11
80134;SHT30;69443;51.442;10.564;2023-07-16T08:49:22;30.55;37.14
80134;SHT30;69443;51.442;10.564;2023-07-16T08:51:48;30.63;37.95
80134;SHT30;69443;51.442;10.564;2023-07-16T08:54:14;30.69;38.02
80134;SHT30;69443;51.442;10.564;2023-07-16T08:56:45;30.77;37.58
80134;SHT30;69443;51.442;10.564;2023-07-16T08:59:14;30.87;37.63
80134;SHT30;69443;51.442;10.564;2023-07-16T09:01:40;30.95;37.60
80134;SHT30;69443;51.442;10.564;2023-07-16T09:04:06;31.06;37.47
80134;SHT30;69443;51.442;10.564;2023-07-16T09:06:31;31.12;37.23
80134;SHT30;69443;51.442;10.564;2023-07-16T09:08:57;31.25;37.06
80134;SHT30;69443;51.442;10.564;2023-07-16T09:11:22;31.35;35.84
80134;SHT30;69443;51.442;10.564;2023-07-16T09:13:51;31.45;36.78
80134;SHT30;69443;51.442;10.564;2023-07-16T09:16:20;31.53;35.82
80134;SHT30;69443;51.442;10.564;2023-07-16T09:18:46;31.62;36.57
80134;SHT30;69443;51.442;10.564;2023-07-16T09:21:13;31.69;36.70
80134;SHT30;69443;51.442;10.564;2023-07-16T09:23:38;31.77;36.57
80134;SHT30;69443;51.442;10.564;2023-07-16T09:26:04;31.83;36.16
80134;SHT30;69443;51.442;10.564;2023-07-16T09:28:31;31.93;36.18
80134;SHT30;69443;51.442;10.564;2023-07-16T09:31:03;31.98;35.69
80134;SHT30;69443;51.442;10.564;2023-07-16T09:33:31;32.01;36.07
80134;SHT30;69443;51.442;10.564;2023-07-16T09:35:56;32.04;36.12
80134;SHT30;69443;51.442;10.564;2023-07-16T09:38:22;32.06;35.76
80134;SHT30;69443;51.442;10.564;2023-07-16T09:40:49;32.07;35.25
80134;SHT30;69443;51.442;10.564;2023-07-16T09:43:14;32.14;34.93
80134;SHT30;69443;51.442;10.564;2023-07-16T09:45:42;32.18;35.25
80134;SHT30;69443;51.442;10.564;2023-07-16T09:48:07;32.27;35.33
80134;SHT30;69443;51.442;10.564;2023-07-16T09:50:35;32.38;34.54
80134;SHT30;69443;51.442;10.564;2023-07-16T09:53:01;32.49;35.14
80134;SHT30;69443;51.442;10.564;2023-07-16T09:55:30;32.59;35.16
80134;SHT30;69443;51.442;10.564;2023-07-16T09:57:59;32.68;35.17
80134;SHT30;69443;51.442;10.564;2023-07-16T10:00:26;32.72;35.09
80134;SHT30;69443;51.442;10.564;2023-07-16T10:02:52;32.77;34.87
80134;SHT30;69443;51.442;10.564;2023-07-16T10:05:20;32.82;34.84
80134;SHT30;69443;51.442;10.564;2023-07-16T10:07:56;32.88;34.63
80134;SHT30;69443;51.442;10.564;2023-07-16T10:10:27;32.97;34.45
80134;SHT30;69443;51.442;10.564;2023-07-16T10:13:03;33.04;34.42
80134;SHT30;69443;51.442;10.564;2023-07-16T10:15:29;33.11;34.52
80134;SHT30;69443;51.442;10.564;2023-07-16T10:17:55;33.21;34.33
80134;SHT30;69443;51.442;10.564;2023-07-16T10:20:31;33.34;31.52
80134;SHT30;69443;51.442;10.564;2023-07-16T10:22:58;33.46;30.94
80134;SHT30;69443;51.442;10.564;2023-07-16T10:25:25;33.58;33.53
80134;SHT30;69443;51.442;10.564;2023-07-16T10:27:52;33.65;32.35
80134;SHT30;69443;51.442;10.564;2023-07-16T10:30:18;33.70;33.34
80134;SHT30;69443;51.442;10.564;2023-07-16T10:32:44;33.79;33.15
80134;SHT30;69443;51.442;10.564;2023-07-16T10:35:10;33.88;33.06
80134;SHT30;69443;51.442;10.564;2023-07-16T10:37:36;33.93;32.53
80134;SHT30;69443;51.442;10.564;2023-07-16T10:40:03;34.01;33.21
80134;SHT30;69443;51.442;10.564;2023-07-16T10:42:29;34.07;33.37
80134;SHT30;69443;51.442;10.564;2023-07-16T10:45:00;34.11;33.19
80134;SHT30;69443;51.442;10.564;2023-07-16T10:47:33;34.20;32.99
80134;SHT30;69443;51.442;10.564;2023-07-16T10:49:59;34.27;33.03
80134;SHT30;69443;51.442;10.564;2023-07-16T10:52:25;34.35;31.37
80134;SHT30;69443;51.442;10.564;2023-07-16T10:54:51;34.42;31.56
80134;SHT30;69443;51.442;10.564;2023-07-16T10:57:26;34.51;32.35
80134;SHT30;69443;51.442;10.564;2023-07-16T10:59:55;34.56;31.96
80134;SHT30;69443;51.442;10.564;2023-07-16T11:02:22;34.61;32.08
80134;SHT30;69443;51.442;10.564;2023-07-16T11:04:48;34.66;32.51
80134;SHT30;69443;51.442;10.564;2023-07-16T11:07:15;34.73;32.40
80134;SHT30;69443;51.442;10.564;2023-07-16T11:09:45;34.78;32.16
80134;SHT30;69443;51.442;10.564;2023-07-16T11:12:12;34.80;30.94
80134;SHT30;69443;51.442;10.564;2023-07-16T11:14:39;34.83;32.27
80134;SHT30;69443;51.442;10.564;2023-07-16T11:17:06;34.85;32.34
80134;SHT30;69443;51.442;10.564;2023-07-16T11:19:32;34.85;32.22
80134;SHT30;69443;51.442;10.564;2023-07-16T11:21:59;34.82;32.52
80134;SHT30;69443;51.442;10.564;2023-07-16T11:24:25;34.78;32.47
80134;SHT30;69443;51.442;10.564;2023-07-16T11:26:53;34.78;32.50
80134;SHT30;69443;51.442;10.564;2023-07-16T11:29:19;34.82;32.19
80134;SHT30;69443;51.442;10.564;2023-07-16T11:31:49;34.83;28.45
80134;SHT30;69443;51.442;10.564;2023-07-16T11:34:15;34.89;31.37
80134;SHT30;69443;51.442;10.564;2023-07-16T11:36:41;34.93;31.40
80134;SHT30;69443;51.442;10.564;2023-07-16T11:39:06;34.97;31.99
80134;SHT30;69443;51.442;10.564;2023-07-16T11:41:32;34.99;32.19
80134;SHT30;69443;51.442;10.564;2023-07-16T11:44:01;35.03;31.91
80134;SHT30;69443;51.442;10.564;2023-07-16T11:46:33;35.04;31.12
80134;SHT30;69443;51.442;10.564;2023-07-16T11:49:00;35.08;31.87
80134;SHT30;69443;51.442;10.564;2023-07-16T11:51:25;35.10;29.85
80134;SHT30;69443;51.442;10.564;2023-07-16T11:53:51;35.10;30.91
80134;SHT30;69443;51.442;10.564;2023-07-16T11:56:16;35.08;31.71
80134;SHT30;69443;51.442;10.564;2023-07-16T11:58:42;35.00;30.85
80134;SHT30;69443;51.442;10.564;2023-07-16T12:01:07;34.97;31.70
80134;SHT30;69443;51.442;10.564;2023-07-16T12:03:33;34.93;31.96
80134;SHT30;69443;51.442;10.564;2023-07-16T12:05:58;34.90;31.70
80134;SHT30;69443;51.442;10.564;2023-07-16T12:08:24;34.87;28.43
80134;SHT30;69443;51.442;10.564;2023-07-16T12:10:49;34.86;28.52
80134;SHT30;69443;51.442;10.564;2023-07-16T12:13:14;34.89;30.30
80134;SHT30;69443;51.442;10.564;2023-07-16T12:15:40;34.85;30.84
80134;SHT30;69443;51.442;10.564;2023-07-16T12:18:05;34.85;31.04
80134;SHT30;69443;51.442;10.564;2023-07-16T12:20:31;34.80;30.33
80134;SHT30;69443;51.442;10.564;2023-07-16T12:22:56;34.76;30.70
80134;SHT30;69443;51.442;10.564;2023-07-16T12:25:21;34.73;31.09
80134;SHT30;69443;51.442;10.564;2023-07-16T12:27:47;34.72;30.77
80134;SHT30;69443;51.442;10.564;2023-07-16T12:30:12;34.66;31.09
80134;SHT30;69443;51.442;10.564;2023-07-16T12:32:37;34.68;30.93
80134;SHT30;69443;51.442;10.564;2023-07-16T12:35:03;34.61;30.68
80134;SHT30;69443;51.442;10.564;2023-07-16T12:37:30;34.56;30.44
80134;SHT30;69443;51.442;10.564;2023-07-16T12:39:55;34.49;30.20
80134;SHT30;69443;51.442;10.564;2023-07-16T12:42:21;34.49;29.28
80134;SHT30;69443;51.442;10.564;2023-07-16T12:44:46;34.47;28.31
80134;SHT30;69443;51.442;10.564;2023-07-16T12:47:11;34.47;28.68
80134;SHT30;69443;51.442;10.564;2023-07-16T12:49:37;34.49;29.06
80134;SHT30;69443;51.442;10.564;2023-07-16T12:52:03;34.53;29.32
80134;SHT30;69443;51.442;10.564;2023-07-16T12:54:28;34.55;28.80
80134;SHT30;69443;51.442;10.564;2023-07-16T12:56:54;34.59;28.52
80134;SHT30;69443;51.442;10.564;2023-07-16T12:59:20;34.63;28.66
80134;SHT30;69443;51.442;10.564;2023-07-16T13:01:45;34.68;28.57
80134;SHT30;69443;51.442;10.564;2023-07-16T13:04:11;34.75;28.63
80134;SHT30;69443;51.442;10.564;2023-07-16T13:06:36;34.80;28.95
80134;SHT30;69443;51.442;10.564;2023-07-16T13:09:01;34.87;28.58
80134;SHT30;69443;51.442;10.564;2023-07-16T13:11:27;34.87;27.62
80134;SHT30;69443;51.442;10.564;2023-07-16T13:13:52;34.90;26.74
80134;SHT30;69443;51.442;10.564;2023-07-16T13:16:18;34.95;27.64
80134;SHT30;69443;51.442;10.564;2023-07-16T13:18:44;34.99;27.90
80134;SHT30;69443;51.442;10.564;2023-07-16T13:21:09;35.02;27.42
80134;SHT30;69443;51.442;10.564;2023-07-16T13:23:34;35.02;26.77
80134;SHT30;69443;51.442;10.564;2023-07-16T13:26:01;35.07;26.82
80134;SHT30;69443;51.442;10.564;2023-07-16T13:28:26;35.07;26.88
80134;SHT30;69443;51.442;10.564;2023-07-16T13:30:52;35.10;26.38
80134;SHT30;69443;51.442;10.564;2023-07-16T13:33:17;35.13;25.68
80134;SHT30;69443;51.442;10.564;2023-07-16T13:35:44;35.13;24.96
80134;SHT30;69443;51.442;10.564;2023-07-16T13:38:09;35.17;25.60
80134;SHT30;69443;51.442;10.564;2023-07-16T13:40:34;35.18;25.49
80134;SHT30;69443;51.442;10.564;2023-07-16T13:43:00;35.20;25.59
80134;SHT30;69443;51.442;10.564;2023-07-16T13:45:25;35.23;25.10
80134;SHT30;69443;51.442;10.564;2023-07-16T13:47:50;35.21;24.30
80134;SHT30;69443;51.442;10.564;2023-07-16T13:50:17;35.20;24.46
80134;SHT30;69443;51.442;10.564;2023-07-16T13:52:44;35.14;24.40
80134;SHT30;69443;51.442;10.564;2023-07-16T13:55:09;35.08;24.51
80134;SHT30;69443;51.442;10.564;2023-07-16T13:57:35;35.02;24.22
80134;SHT30;69443;51.442;10.564;2023-07-16T14:00:00;34.96;24.32
80134;SHT30;69443;51.442;10.564;2023-07-16T14:02:26;34.99;24.79
80134;SHT30;69443;51.442;10.564;2023-07-16T14:04:51;34.96;24.76
80134;SHT30;69443;51.442;10.564;2023-07-16T14:07:16;34.99;24.06
80134;SHT30;69443;51.442;10.564;2023-07-16T14:09:42;34.99;24.17
80134;SHT30;69443;51.442;10.564;2023-07-16T14:12:07;35.00;23.76
80134;SHT30;69443;51.442;10.564;2023-07-16T14:14:33;34.97;23.79
80134;SHT30;69443;51.442;10.564;2023-07-16T14:16:58;35.00;23.61
80134;SHT30;69443;51.442;10.564;2023-07-16T14:19:24;35.00;23.81
80134;SHT30;69443;51.442;10.564;2023-07-16T14:21:49;35.02;23.63
80134;SHT30;69443;51.442;10.564;2023-07-16T14:24:14;34.97;23.74
80134;SHT30;69443;51.442;10.564;2023-07-16T14:26:40;34.96;23.53
80134;SHT30;69443;51.442;10.564;2023-07-16T14:29:14;34.95;23.56
80134;SHT30;69443;51.442;10.564;2023-07-16T14:31:39;34.95;23.83
80134;SHT30;69443;51.442;10.564;2023-07-16T14:34:04;34.93;23.84
80134;SHT30;69443;51.442;10.564;2023-07-16T14:36:30;34.90;24.02
80134;SHT30;69443;51.442;10.564;2023-07-16T14:38:55;34.89;24.22
80134;SHT30;69443;51.442;10.564;2023-07-16T14:41:20;34.92;24.03
80134;SHT30;69443;51.442;10.564;2023-07-16T14:43:46;34.92;24.16
80134;SHT30;69443;51.442;10.564;2023-07-16T14:46:14;34.87;24.00
80134;SHT30;69443;51.442;10.564;2023-07-16T14:48:43;34.80;24.29
80134;SHT30;69443;51.442;10.564;2023-07-16T14:51:10;34.83;24.24
80134;SHT30;69443;51.442;10.564;2023-07-16T14:53:36;34.76;23.90
80134;SHT30;69443;51.442;10.564;2023-07-16T14:56:02;34.73;24.42
80134;SHT30;69443;51.442;10.564;2023-07-16T14:58:29;34.70;24.20
80134;SHT30;69443;51.442;10.564;2023-07-16T15:00:55;34.63;24.17
80134;SHT30;69443;51.442;10.564;2023-07-16T15:03:20;34.63;24.23
80134;SHT30;69443;51.442;10.564;2023-07-16T15:05:46;34.56;23.87
80134;SHT30;69443;51.442;10.564;2023-07-16T15:08:12;34.53;24.07
80134;SHT30;69443;51.442;10.564;2023-07-16T15:10:37;34.47;24.07
80134;SHT30;69443;51.442;10.564;2023-07-16T15:13:02;34.45;24.27